createdAt,value
2018-08-10T00:01:17.763Z,57.23
2018-08-10T00:03:48.774Z,57.87
2018-08-10T00:06:19.099Z,59.23
2018-08-10T00:08:50.033Z,59.87
2018-08-10T00:11:20.631Z,63.80
2018-08-10T00:13:50.833Z,57.87
2018-08-10T00:16:21.147Z,56.63
2018-08-10T00:18:52.426Z,57.73
2018-08-10T00:21:23.257Z,58.90
2018-08-10T00:23:53.867Z,58.70
2018-08-10T00:26:25.125Z,59.80
2018-08-10T00:28:57.102Z,59.07
2018-08-10T00:32:02.820Z,60.23
2018-08-10T00:34:33.269Z,57.73
2018-08-10T00:37:03.773Z,58.03
2018-08-10T00:39:34.192Z,59.27
2018-08-10T00:42:04.938Z,58.40
2018-08-10T00:44:35.502Z,57.50
2018-08-10T00:47:08.294Z,57.90
2018-08-10T00:49:41.017Z,56.77
2018-08-10T00:52:11.818Z,57.93
2018-08-10T00:54:42.746Z,59.13
2018-08-10T00:57:14.408Z,57.93
2018-08-10T00:59:46.205Z,57.20
2018-08-10T01:02:19.254Z,57.33
2018-08-10T01:04:51.502Z,57.33
2018-08-10T01:07:25.400Z,58.90
2018-08-10T01:09:57.281Z,59.90
2018-08-10T01:12:28.096Z,61.90
2018-08-10T01:15:00.785Z,57.97
2018-08-10T01:17:31.845Z,56.80
2018-08-10T01:20:03.005Z,56.80
2018-08-10T01:22:36.635Z,58.77
2018-08-10T01:25:07.524Z,57.97
2018-08-10T01:27:57.391Z,57.83
2018-08-10T01:30:32.562Z,56.77
2018-08-10T01:33:05.515Z,58.47
2018-08-10T01:35:37.181Z,57.20
2018-08-10T01:38:09.036Z,57.13
2018-08-10T01:40:40.107Z,57.43
2018-08-10T01:43:11.075Z,58.97
2018-08-10T01:45:43.321Z,57.10
2018-08-10T01:48:14.002Z,54.33
2018-08-10T01:50:44.889Z,55.83
2018-08-10T01:53:15.842Z,55.20
2018-08-10T01:55:47.936Z,56.50
2018-08-10T01:58:18.140Z,56.93
2018-08-10T02:00:48.520Z,57.37
2018-08-10T02:03:18.943Z,60.23
2018-08-10T02:05:49.115Z,56.73
2018-08-10T02:08:19.282Z,55.93
2018-08-10T02:10:50.485Z,56.60
2018-08-10T02:13:20.739Z,59.00
2018-08-10T02:15:51.724Z,58.17
2018-08-10T02:18:22.735Z,57.13
2018-08-10T02:20:53.973Z,56.70
2018-08-10T02:23:26.505Z,57.43
2018-08-10T02:25:58.837Z,57.80
2018-08-10T02:28:30.260Z,55.37
2018-08-10T02:31:00.625Z,53.97
2018-08-10T02:33:31.278Z,54.37
2018-08-10T02:36:01.469Z,55.17
2018-08-10T02:38:31.644Z,56.37
2018-08-10T02:41:02.235Z,54.90
2018-08-10T02:43:33.220Z,53.67
2018-08-10T02:46:04.597Z,54.10
2018-08-10T02:48:37.058Z,54.60
2018-08-10T02:51:07.998Z,54.00
2018-08-10T02:53:39.422Z,57.47
2018-08-10T02:56:10.782Z,56.33
2018-08-10T02:58:42.058Z,53.93
2018-08-10T03:01:12.097Z,72.00
2018-08-10T03:03:49.426Z,55.17
2018-08-10T03:06:20.767Z,55.97
2018-08-10T03:08:51.108Z,54.13
2018-08-10T03:11:23.017Z,54.20
2018-08-10T03:13:59.514Z,54.73
2018-08-10T03:16:31.329Z,58.97
2018-08-10T03:19:06.508Z,53.03
2018-08-10T03:21:41.919Z,52.13
2018-08-10T03:24:13.086Z,53.83
2018-08-10T03:26:46.195Z,54.30
2018-08-10T03:29:19.055Z,55.90
2018-08-10T03:31:51.060Z,53.10
2018-08-10T03:34:23.141Z,50.93
2018-08-10T03:36:54.521Z,55.20
2018-08-10T03:39:26.537Z,53.03
2018-08-10T03:42:00.848Z,54.07
2018-08-10T03:44:32.727Z,54.20
2018-08-10T03:47:05.011Z,53.27
2018-08-10T03:49:35.366Z,53.53
2018-08-10T03:52:05.763Z,56.73
2018-08-10T03:54:36.513Z,53.93
2018-08-10T03:57:07.141Z,54.07
2018-08-10T03:59:40.030Z,54.73
2018-08-10T04:02:12.111Z,53.50
2018-08-10T04:04:43.737Z,56.23
2018-08-10T04:07:14.841Z,56.70
2018-08-10T04:09:46.191Z,55.13
2018-08-10T04:12:16.573Z,53.17
2018-08-10T04:14:46.853Z,54.67
2018-08-10T04:17:23.923Z,56.17
2018-08-10T04:19:56.211Z,55.37
2018-08-10T04:22:28.749Z,52.00
2018-08-10T04:25:00.694Z,53.13
2018-08-10T04:27:31.650Z,54.37
2018-08-10T04:30:02.751Z,52.80
2018-08-10T04:32:34.534Z,54.93
2018-08-10T04:35:04.981Z,52.60
2018-08-10T04:37:36.070Z,56.40
2018-08-10T04:40:08.789Z,51.80
2018-08-10T04:42:38.994Z,54.07
2018-08-10T04:45:09.605Z,54.13
2018-08-10T04:47:45.348Z,52.90
2018-08-10T04:50:16.386Z,57.10
2018-08-10T04:52:46.629Z,56.07
2018-08-10T04:55:17.698Z,56.67
2018-08-10T04:57:48.698Z,56.87
2018-08-10T05:00:19.321Z,57.77
2018-08-10T05:02:49.744Z,56.57
2018-08-10T05:05:20.373Z,54.97
2018-08-10T05:07:50.645Z,56.20
2018-08-10T05:10:20.791Z,57.80
2018-08-10T05:12:52.357Z,55.70
2018-08-10T05:15:23.448Z,56.03
2018-08-10T05:17:54.121Z,54.67
2018-08-10T05:20:24.085Z,58.30
2018-08-10T05:22:55.240Z,56.53
2018-08-10T05:25:25.758Z,57.60
2018-08-10T05:27:58.222Z,55.33
2018-08-10T05:30:29.979Z,58.40
2018-08-10T05:33:00.192Z,55.90
2018-08-10T05:35:31.238Z,54.07
2018-08-10T05:38:02.097Z,58.57
2018-08-10T05:40:32.844Z,56.10
2018-08-10T05:43:08.857Z,57.90
2018-08-10T05:45:41.595Z,57.50
2018-08-10T05:48:11.974Z,54.93
2018-08-10T05:50:44.749Z,57.73
2018-08-10T05:53:15.350Z,57.13
2018-08-10T05:55:46.056Z,58.60
2018-08-10T05:58:16.658Z,54.77
2018-08-10T06:00:48.109Z,56.97
2018-08-10T06:03:18.304Z,58.03
2018-08-10T06:05:50.695Z,57.60
2018-08-10T06:08:20.854Z,57.77
2018-08-10T06:10:51.017Z,55.53
2018-08-10T06:13:21.833Z,56.90
2018-08-10T06:15:52.445Z,57.43
2018-08-10T06:18:23.648Z,58.10
2018-08-10T06:20:54.172Z,60.43
2018-08-10T06:23:24.635Z,56.70
2018-08-10T06:25:56.301Z,55.40
2018-08-10T06:28:28.341Z,57.37
2018-08-10T06:30:59.706Z,58.67
2018-08-10T06:33:31.698Z,57.57
2018-08-10T06:36:03.149Z,54.53
2018-08-10T06:38:33.729Z,58.10
2018-08-10T06:41:07.135Z,55.57
2018-08-10T06:43:38.199Z,60.53
2018-08-10T06:46:10.169Z,57.40
2018-08-10T06:48:40.661Z,59.57
2018-08-10T06:51:11.153Z,56.00
2018-08-10T06:53:42.213Z,55.07
2018-08-10T06:56:12.789Z,58.40
2018-08-10T06:58:43.407Z,57.03
2018-08-10T07:01:14.175Z,75.53
2018-08-10T07:03:45.593Z,59.03
2018-08-10T07:06:16.593Z,55.97
2018-08-10T07:08:49.215Z,58.60
2018-08-10T07:11:21.410Z,58.93
2018-08-10T07:13:53.554Z,59.60
2018-08-10T07:16:25.909Z,57.77
2018-08-10T07:18:56.143Z,58.67
2018-08-10T07:21:27.708Z,59.83
2018-08-10T07:24:00.009Z,60.20
2018-08-10T07:26:32.577Z,58.90
2018-08-10T07:29:04.017Z,58.60
2018-08-10T07:31:34.499Z,59.93
2018-08-10T07:34:06.763Z,62.30
2018-08-10T07:36:40.686Z,63.03
2018-08-10T07:39:13.375Z,60.30
2018-08-10T07:41:46.602Z,63.80
2018-08-10T07:44:17.362Z,61.33
2018-08-10T07:46:49.246Z,61.23
2018-08-10T07:49:24.894Z,63.57
2018-08-10T07:51:56.963Z,61.73
2018-08-10T07:54:28.842Z,62.87
2018-08-10T07:57:00.090Z,61.20
2018-08-10T07:59:31.373Z,67.20
2018-08-10T08:02:02.584Z,60.60
2018-08-10T08:04:34.829Z,60.03
2018-08-10T08:07:07.986Z,63.97
2018-08-10T08:09:39.127Z,64.73
2018-08-10T08:12:10.432Z,64.77
2018-08-10T08:14:42.761Z,60.90
2018-08-10T08:17:15.094Z,63.33
2018-08-10T08:19:45.728Z,61.97
2018-08-10T08:22:18.267Z,63.03
2018-08-10T08:24:48.804Z,61.93
2018-08-10T08:27:20.520Z,63.07
2018-08-10T08:29:51.621Z,74.17
2018-08-10T08:32:22.021Z,64.63
2018-08-10T08:34:53.082Z,62.73
2018-08-10T08:37:24.443Z,63.40
2018-08-10T08:40:11.534Z,62.33
2018-08-10T08:42:44.682Z,62.87
2018-08-10T08:45:58.260Z,64.00
2018-08-10T08:48:29.360Z,64.03
2018-08-10T08:51:01.647Z,63.57
2018-08-10T08:53:32.037Z,66.60
2018-08-10T08:56:06.542Z,62.57
2018-08-10T08:58:40.195Z,64.20
2018-08-10T09:01:12.669Z,64.00
2018-08-10T09:05:56.102Z,64.80
2018-08-10T09:08:26.771Z,66.73
2018-08-10T09:10:58.429Z,66.20
2018-08-10T09:13:38.311Z,64.53
2018-08-10T09:16:08.386Z,64.20
2018-08-10T09:18:39.511Z,61.97
2018-08-10T09:21:12.605Z,63.53
2018-08-10T09:23:44.461Z,62.83
2018-08-10T09:26:17.391Z,64.37
2018-08-10T09:28:50.134Z,62.13
2018-08-10T09:31:20.869Z,64.53
2018-08-10T09:33:53.356Z,64.53
2018-08-10T09:36:26.244Z,61.37
2018-08-10T09:39:01.098Z,62.03
2018-08-10T09:41:34.504Z,61.83
2018-08-10T09:44:05.573Z,62.23
2018-08-10T09:46:35.792Z,65.50
2018-08-10T09:49:06.712Z,63.10
2018-08-10T09:51:38.508Z,62.87
2018-08-10T09:54:09.516Z,63.83
2018-08-10T09:56:40.848Z,64.17
2018-08-10T09:59:12.386Z,65.53
2018-08-10T10:01:46.583Z,63.57
2018-08-10T10:04:20.813Z,62.77
2018-08-10T10:06:51.217Z,63.60
2018-08-10T10:09:22.161Z,64.27
2018-08-10T10:11:54.173Z,69.13
2018-08-10T10:14:25.333Z,66.63
2018-08-10T10:16:56.174Z,63.60
2018-08-10T10:19:27.201Z,64.63
2018-08-10T10:21:58.926Z,67.13
2018-08-10T10:24:28.871Z,66.30
2018-08-10T10:27:02.856Z,65.40
2018-08-10T10:29:33.310Z,64.83
2018-08-10T10:32:04.323Z,64.07
2018-08-10T10:34:34.574Z,65.57
2018-08-10T10:37:04.678Z,64.50
2018-08-10T10:39:36.188Z,64.03
2018-08-10T10:42:09.632Z,65.33
2018-08-10T10:44:40.427Z,65.93
2018-08-10T10:47:13.928Z,67.03
2018-08-10T10:49:46.768Z,66.30
2018-08-10T10:52:18.288Z,64.50
2018-08-10T10:54:48.649Z,66.17
2018-08-10T10:57:19.821Z,64.77
2018-08-10T10:59:50.817Z,64.50
2018-08-10T11:02:24.681Z,64.23
2018-08-10T11:04:56.564Z,65.37
2018-08-10T11:07:27.948Z,64.97
2018-08-10T11:09:58.059Z,66.10
2018-08-10T11:12:31.236Z,67.60
2018-08-10T11:15:02.289Z,65.33
2018-08-10T11:17:34.354Z,66.00
2018-08-10T11:20:05.683Z,64.73
2018-08-10T11:22:37.254Z,66.03
2018-08-10T11:25:09.480Z,64.87
2018-08-10T11:27:40.957Z,67.73
2018-08-10T11:30:11.633Z,66.87
2018-08-10T11:32:41.784Z,64.53
2018-08-10T11:35:14.255Z,64.23
2018-08-10T11:37:45.085Z,64.87
2018-08-10T11:40:18.989Z,63.77
2018-08-10T11:42:50.254Z,63.73
2018-08-10T11:45:21.963Z,62.47
2018-08-10T11:47:53.077Z,63.60
2018-08-10T11:50:24.373Z,64.43
2018-08-10T11:53:02.527Z,65.30
2018-08-10T11:55:35.238Z,62.93
2018-08-10T11:58:10.151Z,62.20
2018-08-10T12:00:49.836Z,63.63
2018-08-10T12:03:21.212Z,65.53
2018-08-10T12:05:52.101Z,63.60
2018-08-10T12:08:22.498Z,65.13
2018-08-10T12:10:54.622Z,62.70
2018-08-10T12:13:25.888Z,63.73
2018-08-10T12:16:01.528Z,66.87
2018-08-10T12:18:32.474Z,64.03
2018-08-10T12:21:02.853Z,64.70
2018-08-10T12:23:35.252Z,63.93
2018-08-10T12:26:06.014Z,62.27
2018-08-10T12:28:36.803Z,64.70
2018-08-10T12:31:07.785Z,62.90
2018-08-10T12:33:37.938Z,63.23
2018-08-10T12:36:10.352Z,64.53
2018-08-10T12:38:42.530Z,63.57
2018-08-10T12:41:12.728Z,62.73
2018-08-10T12:43:44.508Z,65.43
2018-08-10T12:46:14.748Z,65.83
2018-08-10T12:48:46.979Z,62.93
2018-08-10T12:51:19.346Z,63.57
2018-08-10T12:53:51.616Z,63.70
2018-08-10T12:56:22.688Z,65.97
2018-08-10T12:58:54.804Z,64.50
2018-08-10T13:01:27.957Z,64.70
2018-08-10T13:03:58.629Z,64.17
2018-08-10T13:06:30.458Z,65.10
2018-08-10T13:09:02.416Z,66.33
2018-08-10T13:11:33.518Z,65.53
2018-08-10T13:14:04.491Z,67.73
2018-08-10T13:16:38.446Z,66.87
2018-08-10T13:19:09.201Z,67.67
2018-08-10T13:21:41.522Z,68.17
2018-08-10T13:24:13.393Z,67.70
2018-08-10T13:26:44.981Z,69.00
2018-08-10T13:29:15.406Z,69.93
2018-08-10T13:31:46.825Z,66.47
2018-08-10T13:34:18.878Z,68.47
2018-08-10T13:36:53.813Z,65.93
2018-08-10T13:39:29.438Z,65.43
2018-08-10T13:42:00.711Z,64.30
2018-08-10T13:44:33.363Z,68.20
2018-08-10T13:47:03.538Z,63.60
2018-08-10T13:49:33.871Z,64.70
2018-08-10T13:52:04.784Z,64.03
2018-08-10T13:54:36.583Z,64.07
2018-08-10T13:57:08.485Z,68.47
2018-08-10T13:59:40.009Z,64.80
2018-08-10T14:02:12.987Z,63.80
2018-08-10T14:04:44.379Z,62.47
2018-08-10T14:07:16.162Z,62.57
2018-08-10T14:09:48.368Z,64.33
2018-08-10T14:12:19.173Z,66.87
2018-08-10T14:14:51.784Z,64.10
2018-08-10T14:17:23.349Z,64.70
2018-08-10T14:19:55.237Z,65.50
2018-08-10T14:22:29.095Z,65.80
2018-08-10T14:25:00.905Z,64.43
2018-08-10T14:27:32.328Z,64.50
2018-08-10T14:30:11.726Z,65.93
2018-08-10T14:32:42.985Z,66.23
2018-08-10T14:35:15.617Z,69.43
2018-08-10T14:37:47.575Z,67.53
2018-08-10T14:40:20.444Z,67.60
2018-08-10T14:42:54.926Z,63.17
2018-08-10T14:45:30.053Z,64.87
2018-08-10T14:48:01.729Z,64.57
2018-08-10T14:50:36.086Z,64.33
2018-08-10T14:53:07.038Z,61.33
2018-08-10T14:55:37.954Z,61.53
2018-08-10T14:58:12.418Z,59.67
2018-08-10T15:00:47.483Z,124.03
2018-08-10T15:03:24.332Z,58.33
2018-08-10T15:05:57.106Z,59.60
2018-08-10T15:08:29.120Z,59.67
2018-08-10T15:11:03.418Z,61.37
2018-08-10T15:13:37.834Z,61.70
2018-08-10T15:16:21.496Z,61.33
2018-08-10T15:18:55.782Z,60.37
2018-08-10T15:21:31.019Z,62.67
2018-08-10T15:24:04.650Z,61.93
2018-08-10T15:26:38.987Z,61.83
2018-08-10T15:29:10.977Z,62.80
2018-08-10T15:31:43.267Z,65.23
2018-08-10T15:34:14.162Z,63.23
2018-08-10T15:36:45.602Z,64.90
2018-08-10T15:39:17.442Z,63.43
2018-08-10T15:41:49.257Z,64.40
2018-08-10T15:44:20.576Z,64.83
2018-08-10T15:46:51.021Z,63.73
2018-08-10T15:49:22.280Z,62.67
2018-08-10T15:51:55.807Z,63.27
2018-08-10T15:54:26.060Z,63.93
2018-08-10T15:56:58.543Z,63.40
2018-08-10T15:59:30.184Z,61.67
2018-08-10T16:02:03.284Z,61.07
2018-08-10T16:04:34.345Z,62.73
2018-08-10T16:07:05.888Z,63.63
2018-08-10T16:09:36.491Z,63.53
2018-08-10T16:12:07.223Z,63.60
2018-08-10T16:14:37.842Z,63.27
2018-08-10T16:17:08.437Z,61.50
2018-08-10T16:19:41.431Z,62.30
2018-08-10T16:22:11.853Z,63.27
2018-08-10T16:24:42.473Z,63.87
2018-08-10T16:27:13.124Z,61.97
2018-08-10T16:29:45.481Z,62.00
2018-08-10T16:32:17.746Z,63.67
2018-08-10T16:34:48.445Z,64.17
2018-08-10T16:37:20.743Z,64.70
2018-08-10T16:39:51.289Z,67.10
2018-08-10T16:42:23.733Z,66.23
2018-08-10T16:44:56.124Z,64.97
2018-08-10T16:47:29.136Z,66.87
2018-08-10T16:49:59.267Z,66.90
2018-08-10T16:52:30.369Z,68.20
2018-08-10T16:55:00.816Z,67.23
2018-08-10T16:57:31.065Z,68.23
2018-08-10T17:00:01.821Z,69.90
2018-08-10T17:02:32.154Z,68.23
2018-08-10T17:05:02.770Z,68.10
2018-08-10T17:07:34.366Z,67.13
2018-08-10T17:10:06.259Z,68.93
2018-08-10T17:12:40.091Z,65.93
2018-08-10T17:15:14.284Z,67.57
2018-08-10T17:17:45.502Z,65.43
2018-08-10T17:20:17.785Z,66.63
2018-08-10T17:22:49.475Z,66.20
2018-08-10T17:25:22.821Z,65.33
2018-08-10T17:27:53.648Z,65.97
2018-08-10T17:30:24.891Z,65.67
2018-08-10T17:32:55.487Z,64.90
2018-08-10T17:35:26.398Z,66.43
2018-08-10T17:37:57.309Z,68.63
2018-08-10T17:40:30.120Z,67.50
2018-08-10T17:43:01.363Z,66.60
2018-08-10T17:45:33.823Z,68.17
2018-08-10T17:48:05.011Z,71.37
2018-08-10T17:50:37.558Z,69.60
2018-08-10T17:53:10.550Z,69.87
2018-08-10T17:55:41.958Z,68.30
2018-08-10T17:58:13.282Z,69.40
2018-08-10T18:00:44.390Z,70.03
2018-08-10T18:03:17.234Z,67.63
2018-08-10T18:05:50.159Z,68.13
2018-08-10T18:08:23.475Z,68.80
2018-08-10T18:10:55.916Z,68.27
2018-08-10T18:13:26.760Z,66.93
2018-08-10T18:15:58.268Z,69.07
2018-08-10T18:18:29.266Z,70.80
2018-08-10T18:21:00.276Z,72.95
2018-08-10T18:23:32.427Z,69.47
2018-08-10T18:26:02.715Z,68.97
2018-08-10T18:28:33.700Z,70.00
2018-08-10T18:31:07.127Z,71.03
2018-08-10T18:33:39.808Z,70.20
2018-08-10T18:36:11.692Z,67.77
2018-08-10T18:38:42.680Z,69.53
2018-08-10T18:41:13.838Z,68.17
2018-08-10T18:43:45.714Z,70.93
2018-08-10T18:46:16.129Z,70.77
2018-08-10T18:48:47.589Z,69.30
2018-08-10T18:51:20.001Z,69.87
2018-08-10T18:53:50.534Z,68.90
2018-08-10T18:56:21.076Z,72.30
2018-08-10T18:58:52.166Z,68.33
2018-08-10T19:01:22.523Z,81.23
2018-08-10T19:03:52.762Z,67.03
2018-08-10T19:06:22.914Z,66.23
2018-08-10T19:08:53.623Z,66.73
2018-08-10T19:11:23.790Z,65.63
2018-08-10T19:13:54.353Z,64.70
2018-08-10T19:16:24.606Z,67.37
2018-08-10T19:18:55.099Z,65.70
2018-08-10T19:21:25.658Z,64.40
2018-08-10T19:23:56.556Z,66.60
2018-08-10T19:26:26.714Z,72.10
2018-08-10T19:28:57.886Z,70.33
2018-08-10T19:31:29.329Z,67.07
2018-08-10T19:34:06.609Z,67.53
2018-08-10T19:36:36.831Z,66.07
2018-08-10T19:39:09.848Z,65.83
2018-08-10T19:41:40.789Z,66.53
2018-08-10T19:44:11.022Z,63.50
2018-08-10T19:46:41.273Z,62.03
2018-08-10T19:49:12.412Z,58.63
2018-08-10T19:51:43.502Z,59.87
2018-08-10T19:54:15.230Z,61.20
2018-08-10T19:56:46.678Z,60.20
2018-08-10T19:59:16.778Z,58.97
2018-08-10T20:01:46.955Z,60.70
2018-08-10T20:04:19.211Z,63.13
2018-08-10T20:06:49.617Z,61.03
2018-08-10T20:09:20.638Z,58.90
2018-08-10T20:11:50.731Z,61.13
2018-08-10T20:14:21.105Z,59.53
2018-08-10T20:16:52.058Z,64.20
2018-08-10T20:19:23.449Z,63.30
2018-08-10T20:21:56.771Z,58.90
2018-08-10T20:24:27.210Z,58.73
2018-08-10T20:26:57.436Z,60.07
2018-08-10T20:29:27.868Z,60.47
2018-08-10T20:31:57.930Z,61.77
2018-08-10T20:34:29.053Z,63.57
2018-08-10T20:36:59.284Z,66.23
2018-08-10T20:39:29.756Z,64.53
2018-08-10T20:41:59.949Z,65.63
2018-08-10T20:44:30.628Z,62.20
2018-08-10T20:47:01.237Z,60.87
2018-08-10T20:49:31.396Z,60.60
2018-08-10T20:52:01.608Z,62.23
2018-08-10T20:54:32.117Z,58.53
2018-08-10T20:57:02.431Z,60.93
2018-08-10T20:59:32.704Z,62.50
2018-08-10T21:02:03.538Z,59.20
2018-08-10T21:04:33.876Z,62.10
2018-08-10T21:07:04.545Z,62.10
2018-08-10T21:09:35.121Z,61.20
2018-08-10T21:12:06.149Z,63.27
2018-08-10T21:14:36.809Z,59.80
2018-08-10T21:17:08.394Z,60.63
2018-08-10T21:19:40.023Z,58.07
2018-08-10T21:22:10.454Z,58.83
2018-08-10T21:24:41.613Z,61.97
2018-08-10T21:27:12.840Z,58.10
2018-08-10T21:29:43.724Z,56.53
2018-08-10T21:32:15.007Z,59.27
2018-08-10T21:34:46.523Z,59.37
2018-08-10T21:37:16.809Z,58.60
2018-08-10T21:39:47.370Z,58.87
2018-08-10T21:42:17.695Z,55.70
2018-08-10T21:44:49.236Z,54.33
2018-08-10T21:47:20.485Z,55.50
2018-08-10T21:49:52.541Z,57.30
2018-08-10T21:52:23.226Z,58.87
2018-08-10T21:54:54.268Z,57.87
2018-08-10T21:57:24.564Z,55.97
2018-08-10T21:59:56.658Z,56.40
2018-08-10T22:02:28.032Z,56.20
2018-08-10T22:04:59.468Z,56.37
2018-08-10T22:07:30.821Z,56.23
2018-08-10T22:10:02.306Z,55.60
2018-08-10T22:12:51.936Z,53.73
2018-08-10T22:17:31.161Z,55.87
2018-08-10T22:20:09.055Z,54.90
2018-08-10T22:22:40.166Z,53.67
2018-08-10T22:25:14.271Z,52.00
2018-08-10T22:27:46.160Z,53.33
2018-08-10T22:30:17.396Z,54.40
2018-08-10T22:32:49.098Z,53.90
2018-08-10T22:35:19.992Z,55.43
2018-08-10T22:37:50.548Z,55.50
2018-08-10T22:40:23.018Z,53.47
2018-08-10T22:42:53.555Z,55.93
2018-08-10T22:45:24.014Z,56.73
2018-08-10T22:47:54.696Z,55.77
2018-08-10T22:50:25.514Z,52.47
2018-08-10T22:52:56.304Z,55.13
2018-08-10T22:55:27.946Z,53.20
2018-08-10T22:57:58.882Z,53.80
2018-08-10T23:00:29.816Z,57.17
2018-08-10T23:03:01.165Z,52.93
2018-08-10T23:05:31.898Z,54.07
2018-08-10T23:08:03.258Z,54.40
2018-08-10T23:10:33.738Z,55.87
2018-08-10T23:13:04.921Z,54.20
2018-08-10T23:15:35.179Z,53.70
2018-08-10T23:18:06.917Z,56.60
2018-08-10T23:20:37.963Z,52.73
2018-08-10T23:23:08.885Z,55.20
2018-08-10T23:25:39.689Z,55.67
2018-08-10T23:28:11.686Z,54.07
2018-08-10T23:30:42.442Z,53.30
2018-08-10T23:33:14.357Z,51.87
2018-08-10T23:35:45.347Z,54.37
2018-08-10T23:38:16.699Z,55.17
2018-08-10T23:40:47.742Z,54.57
2018-08-10T23:43:19.601Z,52.17
2018-08-10T23:45:52.673Z,52.40
2018-08-10T23:48:23.874Z,55.40
2018-08-10T23:50:54.677Z,55.73
2018-08-10T23:53:25.583Z,51.17
2018-08-10T23:55:55.974Z,55.70
2018-08-10T23:58:26.958Z,53.17
